sensor_id;sensor_type;location;lat;lon;timestamp;temperature;humidity
13256;DHT22;37913;48.370;10.930;2022-11-23T00:38:14;4.90;20.60
13256;DHT22;37913;48.370;10.930;2022-11-23T00:51:32;5.00;18.70
13256;DHT22;37913;48.370;10.930;2022-11-23T01:07:33;4.90;1.00
13256;DHT22;37913;48.370;10.930;2022-11-23T01:10:45;5.00;1.00
13256;DHT22;37913;48.370;10.930;2022-11-23T01:13:35;4.90;1.80
13256;DHT22;37913;48.370;10.930;2022-11-23T01:16:03;4.80;1.00
13256;DHT22;37913;48.370;10.930;2022-11-23T01:18:30;4.90;1.00
13256;DHT22;37913;48.370;10.930;2022-11-23T01:21:00;4.90;1.00
13256;DHT22;37913;48.370;10.930;2022-11-23T01:27:02;4.70;21.60
13256;DHT22;37913;48.370;10.930;2022-11-23T01:29:29;4.80;1.00
13256;DHT22;37913;48.370;10.930;2022-11-23T01:35:03;4.80;1.00
13256;DHT22;37913;48.370;10.930;2022-11-23T01:37:51;4.80;1.00
13256;DHT22;37913;48.370;10.930;2022-11-23T01:40:19;4.70;26.60
13256;DHT22;37913;48.370;10.930;2022-11-23T01:42:54;4.80;2.10
13256;DHT22;37913;48.370;10.930;2022-11-23T01:45:39;4.70;16.60
13256;DHT22;37913;48.370;10.930;2022-11-23T01:48:12;4.70;4.60
13256;DHT22;37913;48.370;10.930;2022-11-23T01:50:40;4.70;11.60
13256;DHT22;37913;48.370;10.930;2022-11-23T01:53:08;4.70;1.00
13256;DHT22;37913;48.370;10.930;2022-11-23T01:55:35;4.80;1.00
13256;DHT22;37913;48.370;10.930;2022-11-23T01:58:05;4.70;1.00
13256;DHT22;37913;48.370;10.930;2022-11-23T02:00:34;4.70;5.00
13256;DHT22;37913;48.370;10.930;2022-11-23T02:03:03;4.60;22.90
13256;DHT22;37913;48.370;10.930;2022-11-23T02:05:32;4.60;22.80
13256;DHT22;37913;48.370;10.930;2022-11-23T02:08:02;4.80;8.50
13256;DHT22;37913;48.370;10.930;2022-11-23T02:10:30;4.70;3.40
13256;DHT22;37913;48.370;10.930;2022-11-23T02:13:01;4.70;1.00
13256;DHT22;37913;48.370;10.930;2022-11-23T02:15:30;4.80;4.90
13256;DHT22;37913;48.370;10.930;2022-11-23T02:17:58;4.60;15.90
13256;DHT22;37913;48.370;10.930;2022-11-23T02:20:27;4.60;41.80
13256;DHT22;37913;48.370;10.930;2022-11-23T02:23:03;4.50;41.30
13256;DHT22;37913;48.370;10.930;2022-11-23T02:25:39;4.70;41.30
13256;DHT22;37913;48.370;10.930;2022-11-23T02:28:12;4.50;61.70
13256;DHT22;37913;48.370;10.930;2022-11-23T02:30:40;4.50;70.90
13256;DHT22;37913;48.370;10.930;2022-11-23T02:33:08;4.50;81.30
13256;DHT22;37913;48.370;10.930;2022-11-23T02:35:34;4.50;99.90
13256;DHT22;37913;48.370;10.930;2022-11-23T02:38:03;4.50;99.90
13256;DHT22;37913;48.370;10.930;2022-11-23T02:40:33;4.40;99.90
13256;DHT22;37913;48.370;10.930;2022-11-23T02:43:01;4.40;97.70
13256;DHT22;37913;48.370;10.930;2022-11-23T02:45:35;4.40;95.30
13256;DHT22;37913;48.370;10.930;2022-11-23T02:48:04;4.40;99.90
13256;DHT22;37913;48.370;10.930;2022-11-23T02:50:31;4.40;99.90
13256;DHT22;37913;48.370;10.930;2022-11-23T02:52:59;4.40;99.90
13256;DHT22;37913;48.370;10.930;2022-11-23T02:55:27;4.50;99.90
13256;DHT22;37913;48.370;10.930;2022-11-23T02:57:54;4.40;99.90
13256;DHT22;37913;48.370;10.930;2022-11-23T03:00:21;4.40;99.90
13256;DHT22;37913;48.370;10.930;2022-11-23T03:02:50;4.40;99.90
13256;DHT22;37913;48.370;10.930;2022-11-23T03:05:17;4.20;99.90
13256;DHT22;37913;48.370;10.930;2022-11-23T03:07:44;4.40;99.90
13256;DHT22;37913;48.370;10.930;2022-11-23T03:10:14;4.30;99.90
13256;DHT22;37913;48.370;10.930;2022-11-23T03:12:41;4.20;99.90
13256;DHT22;37913;48.370;10.930;2022-11-23T03:15:09;4.20;99.90
13256;DHT22;37913;48.370;10.930;2022-11-23T03:17:36;4.10;99.90
13256;DHT22;37913;48.370;10.930;2022-11-23T03:20:05;4.10;99.90
13256;DHT22;37913;48.370;10.930;2022-11-23T03:22:33;4.10;99.90
13256;DHT22;37913;48.370;10.930;2022-11-23T03:25:00;4.00;99.90
13256;DHT22;37913;48.370;10.930;2022-11-23T03:27:26;4.20;99.90
13256;DHT22;37913;48.370;10.930;2022-11-23T03:29:55;4.30;99.90
13256;DHT22;37913;48.370;10.930;2022-11-23T03:32:22;4.00;99.90
13256;DHT22;37913;48.370;10.930;2022-11-23T03:34:49;4.10;99.90
13256;DHT22;37913;48.370;10.930;2022-11-23T03:37:17;4.10;99.90
13256;DHT22;37913;48.370;10.930;2022-11-23T03:39:44;4.10;99.90
13256;DHT22;37913;48.370;10.930;2022-11-23T03:42:11;4.00;99.90
13256;DHT22;37913;48.370;10.930;2022-11-23T03:44:38;4.00;99.90
13256;DHT22;37913;48.370;10.930;2022-11-23T03:47:05;3.90;99.90
13256;DHT22;37913;48.370;10.930;2022-11-23T03:49:32;4.00;99.90
13256;DHT22;37913;48.370;10.930;2022-11-23T03:51:59;3.50;99.90
13256;DHT22;37913;48.370;10.930;2022-11-23T03:54:27;4.10;99.90
13256;DHT22;37913;48.370;10.930;2022-11-23T03:56:54;4.10;99.90
13256;DHT22;37913;48.370;10.930;2022-11-23T03:59:21;4.10;99.90
13256;DHT22;37913;48.370;10.930;2022-11-23T04:01:48;4.10;99.90
13256;DHT22;37913;48.370;10.930;2022-11-23T04:04:15;4.10;99.90
13256;DHT22;37913;48.370;10.930;2022-11-23T04:06:43;4.20;99.90
13256;DHT22;37913;48.370;10.930;2022-11-23T04:09:11;4.20;99.90
13256;DHT22;37913;48.370;10.930;2022-11-23T04:11:39;4.10;99.90
13256;DHT22;37913;48.370;10.930;2022-11-23T04:14:06;4.10;99.90
13256;DHT22;37913;48.370;10.930;2022-11-23T04:16:33;4.10;99.90
13256;DHT22;37913;48.370;10.930;2022-11-23T04:19:00;4.10;99.90
13256;DHT22;37913;48.370;10.930;2022-11-23T04:21:27;4.20;99.90
13256;DHT22;37913;48.370;10.930;2022-11-23T04:23:53;4.20;99.90
13256;DHT22;37913;48.370;10.930;2022-11-23T04:26:20;4.20;99.90
13256;DHT22;37913;48.370;10.930;2022-11-23T04:28:49;4.20;99.90
13256;DHT22;37913;48.370;10.930;2022-11-23T04:31:16;4.20;99.90
13256;DHT22;37913;48.370;10.930;2022-11-23T04:33:42;4.20;99.90
13256;DHT22;37913;48.370;10.930;2022-11-23T04:36:09;4.10;99.90
13256;DHT22;37913;48.370;10.930;2022-11-23T04:38:36;4.20;99.90
13256;DHT22;37913;48.370;10.930;2022-11-23T04:41:03;4.20;99.90
13256;DHT22;37913;48.370;10.930;2022-11-23T04:43:30;4.20;99.90
13256;DHT22;37913;48.370;10.930;2022-11-23T04:45:59;4.20;99.90
13256;DHT22;37913;48.370;10.930;2022-11-23T04:48:25;4.20;99.90
13256;DHT22;37913;48.370;10.930;2022-11-23T04:50:52;4.10;99.90
13256;DHT22;37913;48.370;10.930;2022-11-23T04:53:19;4.40;99.90
13256;DHT22;37913;48.370;10.930;2022-11-23T04:55:46;4.10;99.90
13256;DHT22;37913;48.370;10.930;2022-11-23T04:58:13;4.10;99.90
13256;DHT22;37913;48.370;10.930;2022-11-23T05:00:40;4.00;99.90
13256;DHT22;37913;48.370;10.930;2022-11-23T05:03:08;4.00;99.90
13256;DHT22;37913;48.370;10.930;2022-11-23T05:05:37;4.00;99.90
13256;DHT22;37913;48.370;10.930;2022-11-23T05:08:04;4.00;99.90
13256;DHT22;37913;48.370;10.930;2022-11-23T05:10:31;4.00;99.90
13256;DHT22;37913;48.370;10.930;2022-11-23T05:12:58;4.00;99.90
13256;DHT22;37913;48.370;10.930;2022-11-23T05:15:34;4.00;99.90
13256;DHT22;37913;48.370;10.930;2022-11-23T05:18:02;4.00;99.90
13256;DHT22;37913;48.370;10.930;2022-11-23T05:20:32;3.90;99.90
13256;DHT22;37913;48.370;10.930;2022-11-23T05:22:59;3.90;99.90
13256;DHT22;37913;48.370;10.930;2022-11-23T05:25:27;3.90;99.90
13256;DHT22;37913;48.370;10.930;2022-11-23T05:27:54;3.90;99.90
13256;DHT22;37913;48.370;10.930;2022-11-23T05:30:21;3.90;99.90
13256;DHT22;37913;48.370;10.930;2022-11-23T05:32:48;4.00;99.90
13256;DHT22;37913;48.370;10.930;2022-11-23T05:35:15;4.00;99.90
13256;DHT22;37913;48.370;10.930;2022-11-23T05:37:44;4.00;99.90
13256;DHT22;37913;48.370;10.930;2022-11-23T05:40:11;4.00;99.90
13256;DHT22;37913;48.370;10.930;2022-11-23T05:42:38;4.00;99.90
13256;DHT22;37913;48.370;10.930;2022-11-23T05:45:06;4.00;99.90
13256;DHT22;37913;48.370;10.930;2022-11-23T05:47:33;4.00;99.90
13256;DHT22;37913;48.370;10.930;2022-11-23T05:50:00;4.00;99.90
13256;DHT22;37913;48.370;10.930;2022-11-23T05:52:26;4.00;99.90
13256;DHT22;37913;48.370;10.930;2022-11-23T05:54:55;4.00;99.90
13256;DHT22;37913;48.370;10.930;2022-11-23T05:57:22;4.00;99.90
13256;DHT22;37913;48.370;10.930;2022-11-23T05:59:49;4.10;99.90
13256;DHT22;37913;48.370;10.930;2022-11-23T06:02:15;4.00;99.90
13256;DHT22;37913;48.370;10.930;2022-11-23T06:04:43;4.00;99.90
13256;DHT22;37913;48.370;10.930;2022-11-23T06:07:12;4.00;99.90
13256;DHT22;37913;48.370;10.930;2022-11-23T06:09:38;4.10;99.90
13256;DHT22;37913;48.370;10.930;2022-11-23T06:12:08;4.10;99.90
13256;DHT22;37913;48.370;10.930;2022-11-23T06:14:35;4.10;99.90
13256;DHT22;37913;48.370;10.930;2022-11-23T06:17:02;4.10;99.90
13256;DHT22;37913;48.370;10.930;2022-11-23T06:19:29;4.00;99.90
13256;DHT22;37913;48.370;10.930;2022-11-23T06:21:56;4.10;99.90
13256;DHT22;37913;48.370;10.930;2022-11-23T06:24:25;4.00;99.90
13256;DHT22;37913;48.370;10.930;2022-11-23T06:26:52;4.10;99.90
13256;DHT22;37913;48.370;10.930;2022-11-23T06:29:21;4.10;99.90
13256;DHT22;37913;48.370;10.930;2022-11-23T06:31:48;4.10;99.90
13256;DHT22;37913;48.370;10.930;2022-11-23T06:34:15;4.10;99.90
13256;DHT22;37913;48.370;10.930;2022-11-23T06:36:42;4.20;99.90
13256;DHT22;37913;48.370;10.930;2022-11-23T06:39:09;4.20;99.90
13256;DHT22;37913;48.370;10.930;2022-11-23T06:41:36;4.20;99.90
13256;DHT22;37913;48.370;10.930;2022-11-23T06:44:04;4.20;99.90
13256;DHT22;37913;48.370;10.930;2022-11-23T06:46:32;4.20;99.90
13256;DHT22;37913;48.370;10.930;2022-11-23T06:48:59;4.20;99.90
13256;DHT22;37913;48.370;10.930;2022-11-23T06:51:26;4.20;99.90
13256;DHT22;37913;48.370;10.930;2022-11-23T06:53:53;4.20;99.90
13256;DHT22;37913;48.370;10.930;2022-11-23T06:56:20;4.20;99.90
13256;DHT22;37913;48.370;10.930;2022-11-23T06:58:48;4.20;99.90
13256;DHT22;37913;48.370;10.930;2022-11-23T07:01:15;4.30;99.90
13256;DHT22;37913;48.370;10.930;2022-11-23T07:03:45;4.40;99.90
13256;DHT22;37913;48.370;10.930;2022-11-23T07:06:12;4.40;99.90
13256;DHT22;37913;48.370;10.930;2022-11-23T07:08:39;4.40;99.90
13256;DHT22;37913;48.370;10.930;2022-11-23T07:11:08;4.40;99.90
13256;DHT22;37913;48.370;10.930;2022-11-23T07:13:36;4.50;99.90
13256;DHT22;37913;48.370;10.930;2022-11-23T07:16:05;4.50;99.90
13256;DHT22;37913;48.370;10.930;2022-11-23T07:18:33;4.50;99.90
13256;DHT22;37913;48.370;10.930;2022-11-23T07:21:01;4.60;99.90
13256;DHT22;37913;48.370;10.930;2022-11-23T07:27:04;4.70;99.90
13256;DHT22;37913;48.370;10.930;2022-11-23T07:29:44;4.70;99.90
13256;DHT22;37913;48.370;10.930;2022-11-23T07:32:13;4.60;99.90
13256;DHT22;37913;48.370;10.930;2022-11-23T07:34:41;4.80;99.90
13256;DHT22;37913;48.370;10.930;2022-11-23T07:37:11;5.00;99.90
13256;DHT22;37913;48.370;10.930;2022-11-23T07:39:38;5.10;99.90
13256;DHT22;37913;48.370;10.930;2022-11-23T07:42:05;5.20;99.90
13256;DHT22;37913;48.370;10.930;2022-11-23T07:44:32;5.10;99.90
13256;DHT22;37913;48.370;10.930;2022-11-23T07:46:59;5.20;99.90
13256;DHT22;37913;48.370;10.930;2022-11-23T07:49:26;5.20;99.90
13256;DHT22;37913;48.370;10.930;2022-11-23T07:51:53;5.30;99.90
13256;DHT22;37913;48.370;10.930;2022-11-23T07:54:26;5.30;99.90
13256;DHT22;37913;48.370;10.930;2022-11-23T07:56:53;5.40;99.90
13256;DHT22;37913;48.370;10.930;2022-11-23T07:59:27;5.50;99.90
13256;DHT22;37913;48.370;10.930;2022-11-23T08:01:54;5.70;99.90
13256;DHT22;37913;48.370;10.930;2022-11-23T08:04:21;5.80;99.30
13256;DHT22;37913;48.370;10.930;2022-11-23T08:06:49;5.90;71.10
13256;DHT22;37913;48.370;10.930;2022-11-23T08:09:16;6.10;69.20
13256;DHT22;37913;48.370;10.930;2022-11-23T08:11:45;6.10;7.00
13256;DHT22;37913;48.370;10.930;2022-11-23T08:14:14;6.10;18.40
13256;DHT22;37913;48.370;10.930;2022-11-23T08:16:48;6.40;55.10
13256;DHT22;37913;48.370;10.930;2022-11-23T08:19:18;6.70;1.00
13256;DHT22;37913;48.370;10.930;2022-11-23T08:21:53;7.20;8.10
13256;DHT22;37913;48.370;10.930;2022-11-23T08:24:22;7.80;51.60
13256;DHT22;37913;48.370;10.930;2022-11-23T08:26:51;8.10;1.00
13256;DHT22;37913;48.370;10.930;2022-11-23T08:29:18;8.90;99.90
13256;DHT22;37913;48.370;10.930;2022-11-23T08:31:45;9.50;1.00
13256;DHT22;37913;48.370;10.930;2022-11-23T08:34:14;9.90;1.00
13256;DHT22;37913;48.370;10.930;2022-11-23T08:36:43;10.30;50.50
13256;DHT22;37913;48.370;10.930;2022-11-23T08:39:10;10.40;99.90
13256;DHT22;37913;48.370;10.930;2022-11-23T08:41:39;10.30;1.00
13256;DHT22;37913;48.370;10.930;2022-11-23T08:44:07;10.30;15.50
13256;DHT22;37913;48.370;10.930;2022-11-23T08:46:36;10.30;1.00
13256;DHT22;37913;48.370;10.930;2022-11-23T08:49:04;10.20;1.00
13256;DHT22;37913;48.370;10.930;2022-11-23T08:51:33;10.10;1.00
13256;DHT22;37913;48.370;10.930;2022-11-23T08:54:01;9.40;99.90
13256;DHT22;37913;48.370;10.930;2022-11-23T08:56:28;9.10;1.00
13256;DHT22;37913;48.370;10.930;2022-11-23T08:58:55;9.00;1.00
13256;DHT22;37913;48.370;10.930;2022-11-23T09:01:23;9.10;17.50
13256;DHT22;37913;48.370;10.930;2022-11-23T09:03:51;9.60;1.00
13256;DHT22;37913;48.370;10.930;2022-11-23T09:06:19;9.30;99.90
13256;DHT22;37913;48.370;10.930;2022-11-23T09:08:52;9.00;1.00
13256;DHT22;37913;48.370;10.930;2022-11-23T09:11:19;9.40;1.00
13256;DHT22;37913;48.370;10.930;2022-11-23T09:13:46;10.00;1.00
13256;DHT22;37913;48.370;10.930;2022-11-23T09:16:13;10.90;1.00
13256;DHT22;37913;48.370;10.930;2022-11-23T09:18:41;11.00;99.90
13256;DHT22;37913;48.370;10.930;2022-11-23T09:21:09;10.70;1.00
13256;DHT22;37913;48.370;10.930;2022-11-23T09:23:36;11.50;99.90
13256;DHT22;37913;48.370;10.930;2022-11-23T09:26:04;12.70;99.90
13256;DHT22;37913;48.370;10.930;2022-11-23T09:28:35;13.60;73.20
13256;DHT22;37913;48.370;10.930;2022-11-23T09:31:03;13.30;1.00
13256;DHT22;37913;48.370;10.930;2022-11-23T09:33:30;13.20;1.00
13256;DHT22;37913;48.370;10.930;2022-11-23T09:36:00;12.40;1.00
13256;DHT22;37913;48.370;10.930;2022-11-23T09:38:27;12.10;1.00
13256;DHT22;37913;48.370;10.930;2022-11-23T09:41:03;12.10;1.00
13256;DHT22;37913;48.370;10.930;2022-11-23T09:43:40;11.40;1.00
13256;DHT22;37913;48.370;10.930;2022-11-23T09:46:15;11.40;57.40
13256;DHT22;37913;48.370;10.930;2022-11-23T09:49:12;11.70;99.90
13256;DHT22;37913;48.370;10.930;2022-11-23T09:51:42;11.90;1.00
13256;DHT22;37913;48.370;10.930;2022-11-23T09:54:23;12.30;1.00
13256;DHT22;37913;48.370;10.930;2022-11-23T09:56:54;13.60;1.00
13256;DHT22;37913;48.370;10.930;2022-11-23T09:59:31;13.60;1.00
13256;DHT22;37913;48.370;10.930;2022-11-23T10:02:02;13.90;1.00
13256;DHT22;37913;48.370;10.930;2022-11-23T10:04:33;13.70;1.00
13256;DHT22;37913;48.370;10.930;2022-11-23T10:07:21;14.40;1.00
13256;DHT22;37913;48.370;10.930;2022-11-23T10:10:11;15.60;1.00
13256;DHT22;37913;48.370;10.930;2022-11-23T10:12:50;14.90;1.00
13256;DHT22;37913;48.370;10.930;2022-11-23T10:15:27;16.40;1.00
13256;DHT22;37913;48.370;10.930;2022-11-23T10:18:13;16.70;1.00
13256;DHT22;37913;48.370;10.930;2022-11-23T10:20:55;18.20;1.00
13256;DHT22;37913;48.370;10.930;2022-11-23T10:23:46;19.70;1.00
13256;DHT22;37913;48.370;10.930;2022-11-23T10:26:19;20.70;1.00
13256;DHT22;37913;48.370;10.930;2022-11-23T10:28:46;21.90;1.00
13256;DHT22;37913;48.370;10.930;2022-11-23T10:31:15;22.80;1.00
13256;DHT22;37913;48.370;10.930;2022-11-23T10:33:48;21.90;99.90
13256;DHT22;37913;48.370;10.930;2022-11-23T10:36:19;21.50;99.90
13256;DHT22;37913;48.370;10.930;2022-11-23T10:38:49;22.80;99.90
13256;DHT22;37913;48.370;10.930;2022-11-23T10:41:17;22.10;99.90
13256;DHT22;37913;48.370;10.930;2022-11-23T10:43:47;20.30;99.90
13256;DHT22;37913;48.370;10.930;2022-11-23T10:46:30;21.60;99.90
13256;DHT22;37913;48.370;10.930;2022-11-23T10:49:16;23.70;99.90
13256;DHT22;37913;48.370;10.930;2022-11-23T10:51:52;24.30;99.90
13256;DHT22;37913;48.370;10.930;2022-11-23T10:54:24;26.20;99.90
13256;DHT22;37913;48.370;10.930;2022-11-23T10:56:52;27.70;99.90
13256;DHT22;37913;48.370;10.930;2022-11-23T10:59:32;26.20;99.90
13256;DHT22;37913;48.370;10.930;2022-11-23T11:02:02;22.40;99.90
13256;DHT22;37913;48.370;10.930;2022-11-23T11:04:36;21.10;99.90
13256;DHT22;37913;48.370;10.930;2022-11-23T11:07:19;20.60;99.90
13256;DHT22;37913;48.370;10.930;2022-11-23T11:09:56;20.90;99.90
13256;DHT22;37913;48.370;10.930;2022-11-23T11:12:23;21.00;99.90
13256;DHT22;37913;48.370;10.930;2022-11-23T11:14:56;18.20;99.90
13256;DHT22;37913;48.370;10.930;2022-11-23T11:17:28;17.90;99.90
13256;DHT22;37913;48.370;10.930;2022-11-23T11:19:55;17.30;99.90
13256;DHT22;37913;48.370;10.930;2022-11-23T11:22:31;17.30;99.90
13256;DHT22;37913;48.370;10.930;2022-11-23T11:25:04;17.10;99.90
13256;DHT22;37913;48.370;10.930;2022-11-23T11:27:32;17.80;99.90
13256;DHT22;37913;48.370;10.930;2022-11-23T11:30:04;16.70;99.90
13256;DHT22;37913;48.370;10.930;2022-11-23T11:32:37;17.90;99.90
13256;DHT22;37913;48.370;10.930;2022-11-23T11:35:12;17.60;99.90
13256;DHT22;37913;48.370;10.930;2022-11-23T11:37:42;16.40;99.90
13256;DHT22;37913;48.370;10.930;2022-11-23T11:40:20;14.80;99.90
13256;DHT22;37913;48.370;10.930;2022-11-23T11:42:52;14.60;99.90
13256;DHT22;37913;48.370;10.930;2022-11-23T11:45:24;13.90;99.90
13256;DHT22;37913;48.370;10.930;2022-11-23T11:47:56;13.80;99.90
13256;DHT22;37913;48.370;10.930;2022-11-23T11:50:27;14.30;99.90
13256;DHT22;37913;48.370;10.930;2022-11-23T11:52:58;15.00;99.90
13256;DHT22;37913;48.370;10.930;2022-11-23T11:55:35;14.70;99.90
13256;DHT22;37913;48.370;10.930;2022-11-23T11:58:10;14.20;99.90
13256;DHT22;37913;48.370;10.930;2022-11-23T12:00:38;14.00;99.90
13256;DHT22;37913;48.370;10.930;2022-11-23T12:03:13;15.40;99.90
13256;DHT22;37913;48.370;10.930;2022-11-23T12:05:48;14.10;99.90
13256;DHT22;37913;48.370;10.930;2022-11-23T12:08:20;14.30;99.90
13256;DHT22;37913;48.370;10.930;2022-11-23T12:10:51;14.60;99.90
13256;DHT22;37913;48.370;10.930;2022-11-23T12:13:20;14.60;99.90
13256;DHT22;37913;48.370;10.930;2022-11-23T12:15:53;13.50;99.90
13256;DHT22;37913;48.370;10.930;2022-11-23T12:18:39;14.00;99.90
13256;DHT22;37913;48.370;10.930;2022-11-23T12:21:24;13.20;99.90
13256;DHT22;37913;48.370;10.930;2022-11-23T12:24:00;16.80;99.90
13256;DHT22;37913;48.370;10.930;2022-11-23T12:26:36;20.90;99.90
13256;DHT22;37913;48.370;10.930;2022-11-23T12:29:39;25.10;99.90
13256;DHT22;37913;48.370;10.930;2022-11-23T12:32:18;28.80;99.90
13256;DHT22;37913;48.370;10.930;2022-11-23T12:37:54;26.10;99.90
13256;DHT22;37913;48.370;10.930;2022-11-23T12:40:35;22.60;99.90
13256;DHT22;37913;48.370;10.930;2022-11-23T12:43:11;20.50;99.90
13256;DHT22;37913;48.370;10.930;2022-11-23T12:45:49;19.60;99.90
13256;DHT22;37913;48.370;10.930;2022-11-23T12:48:40;24.20;99.90
13256;DHT22;37913;48.370;10.930;2022-11-23T12:51:20;27.30;99.90
13256;DHT22;37913;48.370;10.930;2022-11-23T12:53:57;23.70;99.90
13256;DHT22;37913;48.370;10.930;2022-11-23T12:56:53;25.60;99.90
13256;DHT22;37913;48.370;10.930;2022-11-23T12:59:24;27.10;99.90
13256;DHT22;37913;48.370;10.930;2022-11-23T13:01:55;25.20;99.90
13256;DHT22;37913;48.370;10.930;2022-11-23T13:04:45;25.60;99.90
13256;DHT22;37913;48.370;10.930;2022-11-23T13:07:44;27.90;99.90
13256;DHT22;37913;48.370;10.930;2022-11-23T13:10:34;29.80;99.90
13256;DHT22;37913;48.370;10.930;2022-11-23T13:13:20;29.90;99.90
13256;DHT22;37913;48.370;10.930;2022-11-23T13:16:24;31.60;99.90
13256;DHT22;37913;48.370;10.930;2022-11-23T13:19:09;32.80;99.90
13256;DHT22;37913;48.370;10.930;2022-11-23T13:21:39;33.10;99.90
13256;DHT22;37913;48.370;10.930;2022-11-23T13:24:38;32.90;99.90
13256;DHT22;37913;48.370;10.930;2022-11-23T13:27:40;33.20;99.90
13256;DHT22;37913;48.370;10.930;2022-11-23T13:30:21;31.60;99.90
13256;DHT22;37913;48.370;10.930;2022-11-23T13:32:56;30.50;99.90
13256;DHT22;37913;48.370;10.930;2022-11-23T13:35:53;31.20;99.90
13256;DHT22;37913;48.370;10.930;2022-11-23T13:38:37;30.70;99.90
13256;DHT22;37913;48.370;10.930;2022-11-23T13:44:27;30.30;99.90
13256;DHT22;37913;48.370;10.930;2022-11-23T13:47:05;27.40;99.90
13256;DHT22;37913;48.370;10.930;2022-11-23T13:49:41;26.10;99.90
13256;DHT22;37913;48.370;10.930;2022-11-23T13:52:32;20.00;99.90
13256;DHT22;37913;48.370;10.930;2022-11-23T13:55:17;18.30;99.90
13256;DHT22;37913;48.370;10.930;2022-11-23T14:00:55;15.50;99.90
13256;DHT22;37913;48.370;10.930;2022-11-23T14:03:45;15.50;99.90
13256;DHT22;37913;48.370;10.930;2022-11-23T14:06:19;15.30;99.90
13256;DHT22;37913;48.370;10.930;2022-11-23T14:08:49;13.70;99.90
13256;DHT22;37913;48.370;10.930;2022-11-23T14:11:21;13.00;99.90
13256;DHT22;37913;48.370;10.930;2022-11-23T14:13:52;12.20;99.90
13256;DHT22;37913;48.370;10.930;2022-11-23T14:16:42;11.60;99.90
13256;DHT22;37913;48.370;10.930;2022-11-23T14:19:20;11.20;99.90
13256;DHT22;37913;48.370;10.930;2022-11-23T14:22:01;10.70;99.90
13256;DHT22;37913;48.370;10.930;2022-11-23T14:25:00;10.30;99.90
13256;DHT22;37913;48.370;10.930;2022-11-23T14:27:44;9.90;99.90
13256;DHT22;37913;48.370;10.930;2022-11-23T14:30:22;9.50;99.90
13256;DHT22;37913;48.370;10.930;2022-11-23T14:33:04;9.20;99.90
13256;DHT22;37913;48.370;10.930;2022-11-23T14:35:42;9.10;99.90
13256;DHT22;37913;48.370;10.930;2022-11-23T14:41:22;8.80;99.90
13256;DHT22;37913;48.370;10.930;2022-11-23T14:43:56;8.70;99.90
13256;DHT22;37913;48.370;10.930;2022-11-23T14:46:32;8.50;99.90
13256;DHT22;37913;48.370;10.930;2022-11-23T14:49:03;8.50;99.90
13256;DHT22;37913;48.370;10.930;2022-11-23T14:51:32;8.40;99.90
13256;DHT22;37913;48.370;10.930;2022-11-23T14:54:01;8.40;99.90
13256;DHT22;37913;48.370;10.930;2022-11-23T14:56:36;8.70;99.90
13256;DHT22;37913;48.370;10.930;2022-11-23T14:59:07;8.80;99.90
13256;DHT22;37913;48.370;10.930;2022-11-23T15:01:35;8.60;99.90
13256;DHT22;37913;48.370;10.930;2022-11-23T15:04:08;8.50;99.90
13256;DHT22;37913;48.370;10.930;2022-11-23T15:06:54;8.50;99.90
13256;DHT22;37913;48.370;10.930;2022-11-23T15:09:46;8.40;99.90
13256;DHT22;37913;48.370;10.930;2022-11-23T15:12:21;8.20;99.90
13256;DHT22;37913;48.370;10.930;2022-11-23T15:14:53;8.00;99.90
13256;DHT22;37913;48.370;10.930;2022-11-23T15:17:25;7.90;99.90
13256;DHT22;37913;48.370;10.930;2022-11-23T15:19:54;7.70;99.90
13256;DHT22;37913;48.370;10.930;2022-11-23T15:22:21;7.40;99.90
13256;DHT22;37913;48.370;10.930;2022-11-23T15:24:49;7.10;99.90
13256;DHT22;37913;48.370;10.930;2022-11-23T15:27:24;6.80;99.90
13256;DHT22;37913;48.370;10.930;2022-11-23T15:30:00;6.70;99.90
13256;DHT22;37913;48.370;10.930;2022-11-23T15:32:28;6.50;99.90
13256;DHT22;37913;48.370;10.930;2022-11-23T15:34:59;6.50;99.90
13256;DHT22;37913;48.370;10.930;2022-11-23T15:37:27;6.30;1.00
13256;DHT22;37913;48.370;10.930;2022-11-23T15:39:55;6.20;1.00
13256;DHT22;37913;48.370;10.930;2022-11-23T15:42:24;6.10;1.00
13256;DHT22;37913;48.370;10.930;2022-11-23T15:44:52;6.10;1.00
13256;DHT22;37913;48.370;10.930;2022-11-23T15:47:21;6.10;1.00
13256;DHT22;37913;48.370;10.930;2022-11-23T15:49:52;6.10;1.00
13256;DHT22;37913;48.370;10.930;2022-11-23T15:52:22;5.80;99.90
13256;DHT22;37913;48.370;10.930;2022-11-23T15:54:49;5.70;99.90
13256;DHT22;37913;48.370;10.930;2022-11-23T15:57:20;5.50;1.00
13256;DHT22;37913;48.370;10.930;2022-11-23T15:59:56;5.30;1.00
13256;DHT22;37913;48.370;10.930;2022-11-23T16:02:25;5.20;99.90
13256;DHT22;37913;48.370;10.930;2022-11-23T16:05:03;5.20;99.90
13256;DHT22;37913;48.370;10.930;2022-11-23T16:07:31;5.20;99.90
13256;DHT22;37913;48.370;10.930;2022-11-23T16:10:13;5.10;1.00
13256;DHT22;37913;48.370;10.930;2022-11-23T16:12:46;5.10;1.00
13256;DHT22;37913;48.370;10.930;2022-11-23T16:18:27;4.90;99.90
13256;DHT22;37913;48.370;10.930;2022-11-23T16:20:58;4.70;1.00
13256;DHT22;37913;48.370;10.930;2022-11-23T16:23:41;4.60;99.90
13256;DHT22;37913;48.370;10.930;2022-11-23T16:26:10;4.60;77.40
13256;DHT22;37913;48.370;10.930;2022-11-23T16:28:39;4.60;1.00
13256;DHT22;37913;48.370;10.930;2022-11-23T16:31:28;4.60;1.00
13256;DHT22;37913;48.370;10.930;2022-11-23T16:34:01;4.50;1.00
13256;DHT22;37913;48.370;10.930;2022-11-23T16:36:28;4.60;1.00
13256;DHT22;37913;48.370;10.930;2022-11-23T16:38:59;4.70;1.00
13256;DHT22;37913;48.370;10.930;2022-11-23T16:41:49;4.60;1.00
13256;DHT22;37913;48.370;10.930;2022-11-23T16:44:16;4.60;1.00
13256;DHT22;37913;48.370;10.930;2022-11-23T16:46:43;4.50;99.90
13256;DHT22;37913;48.370;10.930;2022-11-23T16:49:18;4.50;99.90
13256;DHT22;37913;48.370;10.930;2022-11-23T16:51:47;4.50;59.80
13256;DHT22;37913;48.370;10.930;2022-11-23T16:54:16;4.50;1.00
13256;DHT22;37913;48.370;10.930;2022-11-23T16:56:44;4.30;99.90
13256;DHT22;37913;48.370;10.930;2022-11-23T16:59:15;4.20;1.00
13256;DHT22;37913;48.370;10.930;2022-11-23T17:01:58;4.10;99.90
13256;DHT22;37913;48.370;10.930;2022-11-23T17:04:26;3.90;1.00
13256;DHT22;37913;48.370;10.930;2022-11-23T17:06:53;3.80;1.00
13256;DHT22;37913;48.370;10.930;2022-11-23T17:09:20;3.90;1.00
13256;DHT22;37913;48.370;10.930;2022-11-23T17:11:47;4.00;1.00
13256;DHT22;37913;48.370;10.930;2022-11-23T17:14:15;4.10;99.90
13256;DHT22;37913;48.370;10.930;2022-11-23T17:16:42;4.00;99.90
13256;DHT22;37913;48.370;10.930;2022-11-23T17:19:13;3.70;1.00
13256;DHT22;37913;48.370;10.930;2022-11-23T17:21:43;3.70;9.30
13256;DHT22;37913;48.370;10.930;2022-11-23T17:24:10;3.70;99.90
13256;DHT22;37913;48.370;10.930;2022-11-23T17:26:40;3.80;99.90